sensor_id;sensor_type;location;lat;lon;timestamp;pressure;altitude;pressure_sealevel;temperature;humidity
20015;BME280;61787;42.022;23.078;2022-12-07T00:00:48;96842.41;;;7.58;100.00
20015;BME280;61787;42.022;23.078;2022-12-07T00:01:50;96843.34;;;7.62;100.00
20015;BME280;61787;42.022;23.078;2022-12-07T00:02:51;96850.06;;;7.59;100.00
20015;BME280;61787;42.022;23.078;2022-12-07T00:03:56;96834.84;;;7.60;100.00
20015;BME280;61787;42.022;23.078;2022-12-07T00:05:01;96839.25;;;7.56;100.00
20015;BME280;61787;42.022;23.078;2022-12-07T00:06:04;96840.34;;;7.46;100.00
20015;BME280;61787;42.022;23.078;2022-12-07T00:07:06;96840.78;;;7.40;100.00
20015;BME280;61787;42.022;23.078;2022-12-07T00:08:08;96841.88;;;7.39;100.00
20015;BME280;61787;42.022;23.078;2022-12-07T00:09:12;96838.75;;;7.37;100.00
20015;BME280;61787;42.022;23.078;2022-12-07T00:10:14;96839.84;;;7.36;100.00
20015;BME280;61787;42.022;23.078;2022-12-07T00:11:20;96835.00;;;7.38;100.00
20015;BME280;61787;42.022;23.078;2022-12-07T00:12:22;96842.19;;;7.37;100.00
20015;BME280;61787;42.022;23.078;2022-12-07T00:13:23;96838.25;;;7.35;100.00
20015;BME280;61787;42.022;23.078;2022-12-07T00:14:25;96831.97;;;7.31;100.00
20015;BME280;61787;42.022;23.078;2022-12-07T00:15:26;96828.06;;;7.28;100.00
20015;BME280;61787;42.022;23.078;2022-12-07T00:16:30;96829.47;;;7.25;100.00
20015;BME280;61787;42.022;23.078;2022-12-07T00:17:32;96831.03;;;7.26;100.00
20015;BME280;61787;42.022;23.078;2022-12-07T00:18:35;96829.47;;;7.25;100.00
20015;BME280;61787;42.022;23.078;2022-12-07T00:19:37;96824.13;;;7.25;100.00
20015;BME280;61787;42.022;23.078;2022-12-07T00:20:39;96831.50;;;7.28;100.00
20015;BME280;61787;42.022;23.078;2022-12-07T00:21:41;96827.28;;;7.27;100.00
20015;BME280;61787;42.022;23.078;2022-12-07T00:22:42;96832.28;;;7.29;100.00
20015;BME280;61787;42.022;23.078;2022-12-07T00:23:45;96831.69;;;7.32;100.00
20015;BME280;61787;42.022;23.078;2022-12-07T00:24:47;96830.25;;;7.35;100.00
20015;BME280;61787;42.022;23.078;2022-12-07T00:25:49;96830.13;;;7.40;100.00
20015;BME280;61787;42.022;23.078;2022-12-07T00:26:50;96837.38;;;7.48;100.00
20015;BME280;61787;42.022;23.078;2022-12-07T00:27:53;96837.50;;;7.51;100.00
20015;BME280;61787;42.022;23.078;2022-12-07T00:29:10;96837.38;;;7.48;100.00
20015;BME280;61787;42.022;23.078;2022-12-07T00:30:13;96833.59;;;7.49;100.00
20015;BME280;61787;42.022;23.078;2022-12-07T00:31:16;96837.50;;;7.51;100.00
20015;BME280;61787;42.022;23.078;2022-12-07T00:32:18;96832.03;;;7.56;100.00
20015;BME280;61787;42.022;23.078;2022-12-07T00:33:20;96831.72;;;7.58;100.00
20015;BME280;61787;42.022;23.078;2022-12-07T00:34:22;96833.59;;;7.57;100.00
20015;BME280;61787;42.022;23.078;2022-12-07T00:35:23;96829.22;;;7.53;100.00
20015;BME280;61787;42.022;23.078;2022-12-07T00:36:25;96836.13;;;7.54;100.00
20015;BME280;61787;42.022;23.078;2022-12-07T00:37:28;96833.13;;;7.55;100.00
20015;BME280;61787;42.022;23.078;2022-12-07T00:38:31;96833.91;;;7.56;100.00
20015;BME280;61787;42.022;23.078;2022-12-07T00:39:33;96827.97;;;7.59;100.00
20015;BME280;61787;42.022;23.078;2022-12-07T00:40:34;96827.47;;;7.65;100.00
20015;BME280;61787;42.022;23.078;2022-12-07T00:41:36;96820.75;;;7.68;100.00
20015;BME280;61787;42.022;23.078;2022-12-07T00:42:38;96824.97;;;7.78;100.00
20015;BME280;61787;42.022;23.078;2022-12-07T00:43:41;96821.53;;;7.77;100.00
20015;BME280;61787;42.022;23.078;2022-12-07T00:44:43;96822.47;;;7.81;100.00
20015;BME280;61787;42.022;23.078;2022-12-07T00:45:44;96821.22;;;7.87;100.00
20015;BME280;61787;42.022;23.078;2022-12-07T00:46:46;96816.03;;;7.82;99.05
20015;BME280;61787;42.022;23.078;2022-12-07T00:47:48;96820.72;;;7.85;99.02
20015;BME280;61787;42.022;23.078;2022-12-07T00:48:50;96820.13;;;7.88;99.15
20015;BME280;61787;42.022;23.078;2022-12-07T00:49:52;96820.09;;;7.97;98.68
20015;BME280;61787;42.022;23.078;2022-12-07T00:50:54;96821.38;;;7.99;98.89
20015;BME280;61787;42.022;23.078;2022-12-07T00:51:55;96826.72;;;7.99;98.56
20015;BME280;61787;42.022;23.078;2022-12-07T00:52:57;96826.06;;;8.02;97.87
20015;BME280;61787;42.022;23.078;2022-12-07T00:53:58;96822.59;;;8.02;98.13
20015;BME280;61787;42.022;23.078;2022-12-07T00:55:00;96823.72;;;8.09;97.70
20015;BME280;61787;42.022;23.078;2022-12-07T00:56:10;96821.19;;;8.13;97.57
20015;BME280;61787;42.022;23.078;2022-12-07T00:57:12;96821.50;;;8.11;97.15
20015;BME280;61787;42.022;23.078;2022-12-07T00:58:14;96823.56;;;8.14;97.19
20015;BME280;61787;42.022;23.078;2022-12-07T00:59:16;96820.72;;;8.11;96.67
20015;BME280;61787;42.022;23.078;2022-12-07T01:00:18;96821.66;;;8.06;96.73
20015;BME280;61787;42.022;23.078;2022-12-07T01:01:20;96818.69;;;7.99;97.40
20015;BME280;61787;42.022;23.078;2022-12-07T01:02:22;96821.97;;;7.96;97.67
20015;BME280;61787;42.022;23.078;2022-12-07T01:03:23;96820.88;;;7.97;97.50
20015;BME280;61787;42.022;23.078;2022-12-07T01:04:25;96821.38;;;7.99;97.87
20015;BME280;61787;42.022;23.078;2022-12-07T01:05:26;96825.59;;;7.92;97.73
20015;BME280;61787;42.022;23.078;2022-12-07T01:06:29;96818.06;;;7.94;97.79
20015;BME280;61787;42.022;23.078;2022-12-07T01:07:31;96816.97;;;8.03;97.66
20015;BME280;61787;42.022;23.078;2022-12-07T01:08:33;96815.88;;;8.04;96.88
20015;BME280;61787;42.022;23.078;2022-12-07T01:09:34;96812.88;;;7.97;97.15
20015;BME280;61787;42.022;23.078;2022-12-07T01:10:36;96807.22;;;7.90;97.78
20015;BME280;61787;42.022;23.078;2022-12-07T01:11:37;96808.34;;;7.89;98.00
20015;BME280;61787;42.022;23.078;2022-12-07T01:12:40;96808.66;;;7.88;98.27
20015;BME280;61787;42.022;23.078;2022-12-07T01:13:42;96800.34;;;7.89;97.99
20015;BME280;61787;42.022;23.078;2022-12-07T01:14:43;96796.09;;;7.88;97.97
20015;BME280;61787;42.022;23.078;2022-12-07T01:15:45;96798.13;;;7.91;97.87
20015;BME280;61787;42.022;23.078;2022-12-07T01:16:46;96794.50;;;7.96;97.53
20015;BME280;61787;42.022;23.078;2022-12-07T01:17:48;96800.94;;;8.03;97.34
20015;BME280;61787;42.022;23.078;2022-12-07T01:18:51;96806.72;;;8.05;97.10
20015;BME280;61787;42.022;23.078;2022-12-07T01:19:53;96802.50;;;8.04;96.55
20015;BME280;61787;42.022;23.078;2022-12-07T01:21:06;96801.09;;;7.98;96.67
20015;BME280;61787;42.022;23.078;2022-12-07T01:22:08;96803.00;;;7.98;97.12
20015;BME280;61787;42.022;23.078;2022-12-07T01:23:09;96802.06;;;7.94;96.64
20015;BME280;61787;42.022;23.078;2022-12-07T01:24:11;96801.41;;;7.97;96.61
20015;BME280;61787;42.022;23.078;2022-12-07T01:25:13;96801.41;;;7.97;96.60
20015;BME280;61787;42.022;23.078;2022-12-07T01:26:18;96799.06;;;7.95;97.17
20015;BME280;61787;42.022;23.078;2022-12-07T01:27:19;96796.69;;;8.02;96.89
20015;BME280;61787;42.022;23.078;2022-12-07T01:28:21;96794.03;;;8.02;96.24
20015;BME280;61787;42.022;23.078;2022-12-07T01:29:23;96800.47;;;8.01;96.06
20015;BME280;61787;42.022;23.078;2022-12-07T01:30:24;96792.75;;;8.08;95.77
20015;BME280;61787;42.022;23.078;2022-12-07T01:31:27;96790.84;;;8.18;95.60
20015;BME280;61787;42.022;23.078;2022-12-07T01:32:29;96797.16;;;8.13;95.75
20015;BME280;61787;42.022;23.078;2022-12-07T01:33:35;96790.56;;;8.02;96.22
20015;BME280;61787;42.022;23.078;2022-12-07T01:34:38;96791.53;;;7.97;96.49
20015;BME280;61787;42.022;23.078;2022-12-07T01:35:39;96788.06;;;7.88;96.08
20015;BME280;61787;42.022;23.078;2022-12-07T01:36:41;96793.41;;;7.88;96.58
20015;BME280;61787;42.022;23.078;2022-12-07T01:37:43;96791.19;;;7.90;96.85
20015;BME280;61787;42.022;23.078;2022-12-07T01:38:45;96788.69;;;7.85;97.06
20015;BME280;61787;42.022;23.078;2022-12-07T01:39:51;96790.91;;;7.83;97.01
20015;BME280;61787;42.022;23.078;2022-12-07T01:40:56;96791.38;;;7.77;97.66
20015;BME280;61787;42.022;23.078;2022-12-07T01:41:58;96791.22;;;7.73;97.98
20015;BME280;61787;42.022;23.078;2022-12-07T01:43:00;96791.84;;;7.70;98.17
20015;BME280;61787;42.022;23.078;2022-12-07T01:46:32;96784.78;;;7.74;98.47
20015;BME280;61787;42.022;23.078;2022-12-07T01:47:33;96787.31;;;7.79;98.45
20015;BME280;61787;42.022;23.078;2022-12-07T01:48:38;96782.59;;;7.76;98.06
20015;BME280;61787;42.022;23.078;2022-12-07T01:49:44;96780.38;;;7.69;98.75
20015;BME280;61787;42.022;23.078;2022-12-07T01:50:50;96785.56;;;7.66;99.42
20015;BME280;61787;42.022;23.078;2022-12-07T01:51:58;96784.00;;;7.65;98.50
20015;BME280;61787;42.022;23.078;2022-12-07T01:53:04;96779.28;;;7.62;99.28
20015;BME280;61787;42.022;23.078;2022-12-07T01:54:10;96777.72;;;7.61;99.17
20015;BME280;61787;42.022;23.078;2022-12-07T01:55:14;96780.38;;;7.61;99.40
20015;BME280;61787;42.022;23.078;2022-12-07T01:56:18;96769.25;;;7.59;99.52
20015;BME280;61787;42.022;23.078;2022-12-07T01:57:22;96779.94;;;7.59;99.29
20015;BME280;61787;42.022;23.078;2022-12-07T01:58:24;96776.78;;;7.57;99.41
20015;BME280;61787;42.022;23.078;2022-12-07T01:59:26;96771.44;;;7.57;99.79
20015;BME280;61787;42.022;23.078;2022-12-07T02:00:28;96770.81;;;7.60;98.82
20015;BME280;61787;42.022;23.078;2022-12-07T02:01:30;96769.41;;;7.62;99.35
20015;BME280;61787;42.022;23.078;2022-12-07T02:02:34;96767.03;;;7.61;99.46
20015;BME280;61787;42.022;23.078;2022-12-07T02:03:40;96766.44;;;7.64;99.94
20015;BME280;61787;42.022;23.078;2022-12-07T02:04:42;96764.88;;;7.63;99.50
20015;BME280;61787;42.022;23.078;2022-12-07T02:05:46;96767.97;;;7.65;99.34
20015;BME280;61787;42.022;23.078;2022-12-07T02:06:48;96765.94;;;7.70;99.72
20015;BME280;61787;42.022;23.078;2022-12-07T02:07:53;96762.31;;;7.75;99.05
20015;BME280;61787;42.022;23.078;2022-12-07T02:08:56;96766.13;;;7.74;99.26
20015;BME280;61787;42.022;23.078;2022-12-07T02:09:57;96771.44;;;7.74;99.56
20015;BME280;61787;42.022;23.078;2022-12-07T02:11:00;96770.81;;;7.77;99.25
20015;BME280;61787;42.022;23.078;2022-12-07T02:12:03;96769.69;;;7.87;98.79
20015;BME280;61787;42.022;23.078;2022-12-07T02:14:13;96774.44;;;7.90;98.26
20015;BME280;61787;42.022;23.078;2022-12-07T02:15:15;96777.69;;;7.95;98.16
20015;BME280;61787;42.022;23.078;2022-12-07T02:16:34;96777.25;;;7.93;97.69
20015;BME280;61787;42.022;23.078;2022-12-07T02:17:46;96772.34;;;7.95;97.60
20015;BME280;61787;42.022;23.078;2022-12-07T02:18:55;96767.00;;;7.95;98.01
20015;BME280;61787;42.022;23.078;2022-12-07T02:21:47;96766.41;;;7.81;99.11
20015;BME280;61787;42.022;23.078;2022-12-07T02:24:31;96764.06;;;7.80;98.80
20015;BME280;61787;42.022;23.078;2022-12-07T02:27:37;96762.31;;;7.75;99.03
20015;BME280;61787;42.022;23.078;2022-12-07T02:30:02;96764.06;;;7.80;99.30
20015;BME280;61787;42.022;23.078;2022-12-07T02:31:12;96757.13;;;7.87;98.44
20015;BME280;61787;42.022;23.078;2022-12-07T02:32:21;96757.91;;;7.96;98.89
20015;BME280;61787;42.022;23.078;2022-12-07T02:33:29;96760.41;;;8.01;97.44
20015;BME280;61787;42.022;23.078;2022-12-07T02:34:50;96751.78;;;7.96;97.66
20015;BME280;61787;42.022;23.078;2022-12-07T02:36:07;96751.16;;;7.99;98.05
20015;BME280;61787;42.022;23.078;2022-12-07T02:39:57;96744.88;;;8.03;97.56
20015;BME280;61787;42.022;23.078;2022-12-07T02:41:07;96748.31;;;8.04;97.14
20015;BME280;61787;42.022;23.078;2022-12-07T02:42:17;96749.41;;;8.11;96.94
20015;BME280;61787;42.022;23.078;2022-12-07T02:43:26;96745.44;;;8.18;96.96
20015;BME280;61787;42.022;23.078;2022-12-07T02:44:29;96750.00;;;8.17;95.88
20015;BME280;61787;42.022;23.078;2022-12-07T02:45:35;96751.72;;;8.22;96.06
20015;BME280;61787;42.022;23.078;2022-12-07T02:46:42;96748.56;;;8.28;96.04
20015;BME280;61787;42.022;23.078;2022-12-07T02:47:48;96743.09;;;8.25;95.66
20015;BME280;61787;42.022;23.078;2022-12-07T02:48:53;96737.75;;;8.25;95.36
20015;BME280;61787;42.022;23.078;2022-12-07T02:49:56;96742.16;;;8.21;95.75
20015;BME280;61787;42.022;23.078;2022-12-07T02:50:57;96739.00;;;8.19;95.84
20015;BME280;61787;42.022;23.078;2022-12-07T02:51:59;96735.53;;;8.27;95.27
20015;BME280;61787;42.022;23.078;2022-12-07T02:53:00;96737.59;;;8.30;95.42
20015;BME280;61787;42.022;23.078;2022-12-07T02:54:02;96737.28;;;8.23;94.28
20015;BME280;61787;42.022;23.078;2022-12-07T02:55:04;96740.25;;;8.21;94.89
20015;BME280;61787;42.022;23.078;2022-12-07T02:58:38;96736.16;;;8.41;94.36
20015;BME280;61787;42.022;23.078;2022-12-07T03:00:03;96734.06;;;8.46;93.89
20015;BME280;61787;42.022;23.078;2022-12-07T03:01:26;96737.81;;;8.54;93.02
20015;BME280;61787;42.022;23.078;2022-12-07T03:02:56;96730.47;;;8.51;92.39
20015;BME280;61787;42.022;23.078;2022-12-07T03:06:45;96734.84;;;8.47;92.38
20015;BME280;61787;42.022;23.078;2022-12-07T03:11:00;96728.66;;;8.64;91.46
20015;BME280;61787;42.022;23.078;2022-12-07T03:12:14;96734.50;;;8.57;91.91
20015;BME280;61787;42.022;23.078;2022-12-07T03:13:23;96735.63;;;8.56;91.95
20015;BME280;61787;42.022;23.078;2022-12-07T03:14:31;96734.34;;;8.53;91.77
20015;BME280;61787;42.022;23.078;2022-12-07T03:17:11;96735.81;;;8.51;92.28
20015;BME280;61787;42.022;23.078;2022-12-07T03:18:17;96741.78;;;8.48;91.58
20015;BME280;61787;42.022;23.078;2022-12-07T03:19:21;96745.72;;;8.42;92.74
20015;BME280;61787;42.022;23.078;2022-12-07T03:20:25;96740.84;;;8.44;92.15
20015;BME280;61787;42.022;23.078;2022-12-07T03:21:32;96744.63;;;8.43;92.78
20015;BME280;61787;42.022;23.078;2022-12-07T03:22:36;96740.97;;;8.47;91.91
20015;BME280;61787;42.022;23.078;2022-12-07T03:23:41;96746.31;;;8.47;91.86
20015;BME280;61787;42.022;23.078;2022-12-07T03:24:50;96741.16;;;8.51;92.29
20015;BME280;61787;42.022;23.078;2022-12-07T03:25:57;96751.66;;;8.56;91.85
20015;BME280;61787;42.022;23.078;2022-12-07T03:27:23;96751.47;;;8.61;90.31
20015;BME280;61787;42.022;23.078;2022-12-07T03:28:31;96756.47;;;8.63;90.06
20015;BME280;61787;42.022;23.078;2022-12-07T03:29:38;96753.69;;;8.59;89.68
20015;BME280;61787;42.022;23.078;2022-12-07T03:30:52;96759.03;;;8.59;89.20
20015;BME280;61787;42.022;23.078;2022-12-07T03:32:03;96752.72;;;8.64;88.89
20015;BME280;61787;42.022;23.078;2022-12-07T03:33:11;96758.84;;;8.64;89.00
20015;BME280;61787;42.022;23.078;2022-12-07T03:34:19;96761.50;;;8.64;88.83
20015;BME280;61787;42.022;23.078;2022-12-07T03:36:45;96747.69;;;8.62;88.73
20015;BME280;61787;42.022;23.078;2022-12-07T03:37:53;96753.69;;;8.59;88.46
20015;BME280;61787;42.022;23.078;2022-12-07T03:40:37;96751.19;;;8.54;89.32
20015;BME280;61787;42.022;23.078;2022-12-07T03:41:41;96745.53;;;8.47;89.55
20015;BME280;61787;42.022;23.078;2022-12-07T03:42:46;96749.00;;;8.47;89.54
20015;BME280;61787;42.022;23.078;2022-12-07T03:43:48;96744.44;;;8.48;89.67
20015;BME280;61787;42.022;23.078;2022-12-07T03:44:50;96744.00;;;8.46;89.71
20015;BME280;61787;42.022;23.078;2022-12-07T03:46:31;96744.63;;;8.43;90.57
20015;BME280;61787;42.022;23.078;2022-12-07T03:47:52;96743.88;;;8.25;90.56
20015;BME280;61787;42.022;23.078;2022-12-07T03:49:04;96743.88;;;8.17;91.62
20015;BME280;61787;42.022;23.078;2022-12-07T03:51:38;96735.78;;;7.87;94.13
20015;BME280;61787;42.022;23.078;2022-12-07T03:52:56;96727.31;;;7.77;94.95
20015;BME280;61787;42.022;23.078;2022-12-07T03:55:17;96738.63;;;7.56;96.66
20015;BME280;61787;42.022;23.078;2022-12-07T03:56:21;96737.88;;;7.47;96.78
20015;BME280;61787;42.022;23.078;2022-12-07T03:57:25;96736.31;;;7.38;98.33
20015;BME280;61787;42.022;23.078;2022-12-07T03:58:28;96739.13;;;7.33;98.79
20015;BME280;61787;42.022;23.078;2022-12-07T03:59:31;96748.22;;;7.32;99.28
20015;BME280;61787;42.022;23.078;2022-12-07T04:00:33;96738.47;;;7.36;99.34
20015;BME280;61787;42.022;23.078;2022-12-07T04:01:35;96736.31;;;7.38;99.30
20015;BME280;61787;42.022;23.078;2022-12-07T04:02:37;96736.91;;;7.35;99.18
20015;BME280;61787;42.022;23.078;2022-12-07T04:03:39;96734.25;;;7.35;99.25
20015;BME280;61787;42.022;23.078;2022-12-07T04:04:41;96739.56;;;7.35;99.28
20015;BME280;61787;42.022;23.078;2022-12-07T04:05:44;96738.00;;;7.34;99.75
20015;BME280;61787;42.022;23.078;2022-12-07T04:06:45;96734.56;;;7.33;99.38
20015;BME280;61787;42.022;23.078;2022-12-07T04:07:47;96739.13;;;7.33;99.19
20015;BME280;61787;42.022;23.078;2022-12-07T04:08:49;96736.91;;;7.35;99.31
20015;BME280;61787;42.022;23.078;2022-12-07T04:09:50;96736.91;;;7.35;99.18
20015;BME280;61787;42.022;23.078;2022-12-07T04:10:52;96740.66;;;7.34;99.84
20015;BME280;61787;42.022;23.078;2022-12-07T04:11:53;96740.84;;;7.37;99.71
20015;BME280;61787;42.022;23.078;2022-12-07T04:12:55;96740.38;;;7.44;99.08
20015;BME280;61787;42.022;23.078;2022-12-07T04:13:57;96739.59;;;7.43;98.61
20015;BME280;61787;42.022;23.078;2022-12-07T04:15:17;96734.09;;;7.40;98.78
20015;BME280;61787;42.022;23.078;2022-12-07T04:16:19;96735.19;;;7.39;98.89
20015;BME280;61787;42.022;23.078;2022-12-07T04:17:20;96736.13;;;7.34;99.09
20015;BME280;61787;42.022;23.078;2022-12-07T04:18:22;96735.50;;;7.28;99.17
20015;BME280;61787;42.022;23.078;2022-12-07T04:19:26;96734.09;;;7.22;99.70
20015;BME280;61787;42.022;23.078;2022-12-07T04:20:28;96731.59;;;7.17;99.97
20015;BME280;61787;42.022;23.078;2022-12-07T04:21:30;96729.06;;;7.12;100.00
20015;BME280;61787;42.022;23.078;2022-12-07T04:22:31;96728.59;;;7.10;100.00
20015;BME280;61787;42.022;23.078;2022-12-07T04:23:33;96729.69;;;7.09;100.00
20015;BME280;61787;42.022;23.078;2022-12-07T04:24:35;96735.63;;;7.06;100.00
20015;BME280;61787;42.022;23.078;2022-12-07T04:25:36;96717.91;;;7.02;100.00
20015;BME280;61787;42.022;23.078;2022-12-07T04:26:38;96724.19;;;6.97;100.00
20015;BME280;61787;42.022;23.078;2022-12-07T04:27:39;96725.44;;;7.00;100.00
20015;BME280;61787;42.022;23.078;2022-12-07T04:28:41;96718.72;;;7.02;100.00
20015;BME280;61787;42.022;23.078;2022-12-07T04:29:43;96727.59;;;6.98;100.00
20015;BME280;61787;42.022;23.078;2022-12-07T04:30:45;96722.59;;;6.96;100.00
20015;BME280;61787;42.022;23.078;2022-12-07T04:31:47;96719.94;;;6.96;100.00
20015;BME280;61787;42.022;23.078;2022-12-07T04:32:48;96718.84;;;6.97;100.00
20015;BME280;61787;42.022;23.078;2022-12-07T04:33:50;96717.13;;;7.01;100.00
20015;BME280;61787;42.022;23.078;2022-12-07T04:34:52;96720.09;;;7.00;100.00
20015;BME280;61787;42.022;23.078;2022-12-07T04:35:56;96720.88;;;7.00;100.00
20015;BME280;61787;42.022;23.078;2022-12-07T04:36:58;96726.22;;;7.00;100.00
20015;BME280;61787;42.022;23.078;2022-12-07T04:37:59;96723.06;;;6.98;100.00
20015;BME280;61787;42.022;23.078;2022-12-07T04:39:02;96723.56;;;7.00;99.90
20015;BME280;61787;42.022;23.078;2022-12-07T04:40:05;96725.13;;;7.01;99.57
20015;BME280;61787;42.022;23.078;2022-12-07T04:41:08;96720.09;;;7.00;99.03
20015;BME280;61787;42.022;23.078;2022-12-07T04:42:10;96729.97;;;6.99;99.67
20015;BME280;61787;42.022;23.078;2022-12-07T04:43:12;96725.72;;;6.98;99.77
20015;BME280;61787;42.022;23.078;2022-12-07T04:44:14;96726.53;;;6.99;100.00
20015;BME280;61787;42.022;23.078;2022-12-07T04:45:16;96726.22;;;7.00;100.00
20015;BME280;61787;42.022;23.078;2022-12-07T04:46:17;96734.06;;;7.05;100.00
20015;BME280;61787;42.022;23.078;2022-12-07T04:47:20;96725.78;;;7.07;100.00
20015;BME280;61787;42.022;23.078;2022-12-07T04:48:22;96733.28;;;7.05;100.00
20015;BME280;61787;42.022;23.078;2022-12-07T04:49:24;96732.03;;;7.02;100.00
20015;BME280;61787;42.022;23.078;2022-12-07T04:50:26;96722.47;;;7.01;100.00
20015;BME280;61787;42.022;23.078;2022-12-07T04:51:29;96729.19;;;6.99;100.00
20015;BME280;61787;42.022;23.078;2022-12-07T04:52:30;96716.19;;;6.97;100.00
20015;BME280;61787;42.022;23.078;2022-12-07T04:53:32;96723.41;;;6.97;100.00
20015;BME280;61787;42.022;23.078;2022-12-07T04:54:34;96729.03;;;6.95;100.00
20015;BME280;61787;42.022;23.078;2022-12-07T04:55:36;96732.78;;;6.94;100.00
20015;BME280;61787;42.022;23.078;2022-12-07T04:56:38;96731.22;;;6.93;100.00
20015;BME280;61787;42.022;23.078;2022-12-07T04:57:39;96731.06;;;6.98;100.00
20015;BME280;61787;42.022;23.078;2022-12-07T04:58:42;96730.91;;;7.03;100.00
20015;BME280;61787;42.022;23.078;2022-12-07T04:59:44;96725.28;;;7.13;100.00
20015;BME280;61787;42.022;23.078;2022-12-07T05:00:46;96731.59;;;7.17;99.87
20015;BME280;61787;42.022;23.078;2022-12-07T05:01:48;96735.19;;;7.21;99.31
20015;BME280;61787;42.022;23.078;2022-12-07T05:02:50;96738.78;;;7.25;99.15
20015;BME280;61787;42.022;23.078;2022-12-07T05:03:51;96736.91;;;7.35;98.74
20015;BME280;61787;42.022;23.078;2022-12-07T05:04:53;96737.25;;;7.42;98.29
20015;BME280;61787;42.022;23.078;2022-12-07T05:05:54;96739.09;;;7.50;97.64
20015;BME280;61787;42.022;23.078;2022-12-07T05:06:56;96742.56;;;7.59;97.64
20015;BME280;61787;42.022;23.078;2022-12-07T05:07:58;96738.63;;;7.65;96.72
20015;BME280;61787;42.022;23.078;2022-12-07T05:09:00;96743.66;;;7.66;95.92
20015;BME280;61787;42.022;23.078;2022-12-07T05:10:02;96735.78;;;7.70;94.96
20015;BME280;61787;42.022;23.078;2022-12-07T05:11:05;96738.00;;;7.77;94.75
20015;BME280;61787;42.022;23.078;2022-12-07T05:12:07;96742.06;;;7.83;95.11
20015;BME280;61787;42.022;23.078;2022-12-07T05:13:09;96740.03;;;7.88;94.45
20015;BME280;61787;42.022;23.078;2022-12-07T05:14:13;96746.28;;;7.92;93.89
20015;BME280;61787;42.022;23.078;2022-12-07T05:15:16;96743.47;;;7.97;93.58
20015;BME280;61787;42.022;23.078;2022-12-07T05:16:17;96744.38;;;8.01;94.52
20015;BME280;61787;42.022;23.078;2022-12-07T05:17:19;96747.78;;;8.28;100.00
20015;BME280;61787;42.022;23.078;2022-12-07T05:18:21;96746.84;;;8.41;100.00
20015;BME280;61787;42.022;23.078;2022-12-07T05:19:24;96745.53;;;8.47;100.00
20015;BME280;61787;42.022;23.078;2022-12-07T05:20:27;96744.13;;;8.49;98.49
20015;BME280;61787;42.022;23.078;2022-12-07T05:21:29;96746.94;;;8.53;97.35
20015;BME280;61787;42.022;23.078;2022-12-07T05:22:30;96741.28;;;8.54;95.97
20015;BME280;61787;42.022;23.078;2022-12-07T05:23:32;96732.47;;;8.54;94.47
20015;BME280;61787;42.022;23.078;2022-12-07T05:24:33;96734.66;;;8.52;93.29
20015;BME280;61787;42.022;23.078;2022-12-07T05:25:35;96741.69;;;8.36;91.79
20015;BME280;61787;42.022;23.078;2022-12-07T05:26:37;96734.63;;;8.14;92.39
20015;BME280;61787;42.022;23.078;2022-12-07T05:27:38;96735.94;;;7.99;92.89
20015;BME280;61787;42.022;23.078;2022-12-07T05:28:40;96741.88;;;7.96;93.52
20015;BME280;61787;42.022;23.078;2022-12-07T05:29:42;96733.56;;;7.98;93.67
20015;BME280;61787;42.022;23.078;2022-12-07T05:30:43;96737.97;;;8.02;93.77
20015;BME280;61787;42.022;23.078;2022-12-07T05:31:45;96738.56;;;8.08;93.46
20015;BME280;61787;42.022;23.078;2022-12-07T05:32:47;96742.66;;;8.14;92.67
20015;BME280;61787;42.022;23.078;2022-12-07T05:33:48;96745.63;;;8.12;92.27
20015;BME280;61787;42.022;23.078;2022-12-07T05:34:50;96742.47;;;8.10;92.81
20015;BME280;61787;42.022;23.078;2022-12-07T05:35:52;96738.72;;;8.11;93.52
20015;BME280;61787;42.022;23.078;2022-12-07T05:36:53;96738.22;;;8.18;93.62
20015;BME280;61787;42.022;23.078;2022-12-07T05:37:55;96744.34;;;8.19;92.75
20015;BME280;61787;42.022;23.078;2022-12-07T05:38:58;96740.75;;;8.14;91.67
20015;BME280;61787;42.022;23.078;2022-12-07T05:40:00;96747.81;;;8.10;92.36
20015;BME280;61787;42.022;23.078;2022-12-07T05:41:04;96746.13;;;7.97;91.69
20015;BME280;61787;42.022;23.078;2022-12-07T05:42:06;96743.81;;;7.70;93.77
20015;BME280;61787;42.022;23.078;2022-12-07T05:43:13;96742.91;;;7.49;95.85
20015;BME280;61787;42.022;23.078;2022-12-07T05:44:15;96745.06;;;7.29;97.04
20015;BME280;61787;42.022;23.078;2022-12-07T05:45:16;96738.47;;;7.18;97.71
20015;BME280;61787;42.022;23.078;2022-12-07T05:46:18;96735.00;;;7.09;99.16
20015;BME280;61787;42.022;23.078;2022-12-07T05:47:20;96742.38;;;7.04;99.73
20015;BME280;61787;42.022;23.078;2022-12-07T05:48:22;96736.53;;;6.93;100.00
20015;BME280;61787;42.022;23.078;2022-12-07T05:49:24;96731.84;;;6.90;100.00
20015;BME280;61787;42.022;23.078;2022-12-07T05:50:25;96730.13;;;6.85;100.00
20015;BME280;61787;42.022;23.078;2022-12-07T05:51:27;96728.03;;;6.74;100.00
20015;BME280;61787;42.022;23.078;2022-12-07T05:52:29;96731.47;;;6.66;100.00
20015;BME280;61787;42.022;23.078;2022-12-07T05:53:30;96729.75;;;6.61;100.00
20015;BME280;61787;42.022;23.078;2022-12-07T05:54:32;96728.97;;;6.61;100.00
20015;BME280;61787;42.022;23.078;2022-12-07T05:55:34;96726.44;;;6.64;100.00
20015;BME280;61787;42.022;23.078;2022-12-07T05:56:36;96730.25;;;6.72;100.00
20015;BME280;61787;42.022;23.078;2022-12-07T05:57:37;96731.50;;;6.83;100.00
20015;BME280;61787;42.022;23.078;2022-12-07T05:58:39;96731.06;;;6.81;100.00
20015;BME280;61787;42.022;23.078;2022-12-07T05:59:59;96724.00;;;6.85;100.00
20015;BME280;61787;42.022;23.078;2022-12-07T06:01:01;96728.84;;;6.83;100.00
20015;BME280;61787;42.022;23.078;2022-12-07T06:02:08;96730.72;;;6.82;100.00
20015;BME280;61787;42.022;23.078;2022-12-07T06:03:10;96732.00;;;6.85;100.00
20015;BME280;61787;42.022;23.078;2022-12-07T06:04:11;96732.13;;;6.80;100.00
20015;BME280;61787;42.022;23.078;2022-12-07T06:05:13;96731.66;;;6.78;100.00
20015;BME280;61787;42.022;23.078;2022-12-07T06:06:15;96737.13;;;6.73;100.00